Flight Track Log - Related Links

Times and Time Zones

All times are in EDT time to prevent confusion due to time zone crossing. See the N9373F flight status page for this flight to view local times or setup timezone preferences in your user account.

Time Position Orientation Groundspeed Altitude Reporting Facility
EDT Latitude Longitude Course Direction KTS MPH feet Rate Location/Type
Fri 01:50:32 PM 30.2589 -96.4656 275° West 88 101 2,800  Level Houston Center
Fri 01:51:17 PM 30.2647 -96.4856 289° West 87 100 3,000 414 Climbing Houston Center
Fri 01:52:28 PM 30.2739 -96.5194 287° West 91 105 3,600 488 Climbing Houston Center
Fri 01:53:20 PM 30.2822 -96.5417 293° West 91 105 4,000 474 Climbing Houston Center
Fri 01:54:22 PM 30.2933 -96.5703 294° West 94 108 4,500 435 Climbing Houston Center
Fri 01:55:24 PM 30.3036 -96.6006 291° West 99 114 4,900 339 Climbing Houston Center
Fri 01:56:00 PM 30.6099 -96.6574 275° West  Level Estimated
Fri 01:56:26 PM 30.3139 -96.6306 292° West 99 114 5,200  Level Houston Center
Fri 01:57:28 PM 30.3236 -96.6619 290° West 101 116 5,800 435 Climbing Houston Center
Fri 01:58:30 PM 30.3339 -96.6889 294° West 94 108 6,100 339 Climbing Houston Center
Fri 01:59:32 PM 30.3492 -96.7217 298° West 98 113 6,500 194 Climbing Houston Center
Fri 02:00:34 PM 30.3617 -96.7581 292° West 118 136 6,500  Level Houston Center
Fri 02:01:37 PM 30.3753 -96.7958 293° West 125 144 6,500  Level Houston Center
Fri 02:02:38 PM 30.3881 -96.8339 291° West 126 145 6,500 -48 Level Houston Center
Fri 02:03:41 PM 30.4017 -96.8700 294° West 123 142 6,400 -1,728 Descending Houston Center
Fri 02:04:43 PM 30.4167 -96.9044 297° West 119 137 2,900 -1,645 Descending Houston Center
Fri 02:05:45 PM 30.4267 -96.9425 287° West 121 139 3,000 48 Climbing Houston Center
Fri 02:06:47 PM 30.4411 -96.9794 294° West 124 143 3,000  Level Houston Center
Fri 02:07:49 PM 30.4561 -97.0206 293° West 119 137 3,000  Level Houston Center
Fri 02:08:51 PM 30.4700 -97.0583 293° West 124 143 3,000  Level Houston Center
Fri 02:09:53 PM 30.4836 -97.0969 292° West 127 146 3,000  Level Houston Center
Fri 02:10:54 PM 30.4989 -97.1344 295° West 126 145 3,000 -49 Level Houston Center
Fri 02:11:56 PM 30.5108 -97.1722 290° West 125 144 2,900 1,500 Descending Houston Center
Fri 02:12:58 PM 30.5244 -97.2117 292° West 128 147 6,100 1,355 Climbing Houston Center
Fri 02:14:00 PM 30.5425 -97.2528 297° West 132 152 5,700 -387 Descending Houston Center

Login

Don't have an account? Register now (free) for customized features, flight alerts, and more!